sensor_id;sensor_type;location;lat;lon;timestamp;pressure;altitude;pressure_sealevel;temperature;humidity
10668;BME280;5382;42.136;24.796;2023-05-22T00:00:53;99539.47;;;17.11;100.00
10668;BME280;5382;42.136;24.796;2023-05-22T00:03:21;99537.84;;;17.18;100.00
10668;BME280;5382;42.136;24.796;2023-05-22T00:05:50;99539.19;;;17.22;100.00
10668;BME280;5382;42.136;24.796;2023-05-22T00:08:17;99540.19;;;17.21;100.00
10668;BME280;5382;42.136;24.796;2023-05-22T00:10:44;99525.84;;;17.22;100.00
10668;BME280;5382;42.136;24.796;2023-05-22T00:13:11;99531.69;;;17.26;100.00
10668;BME280;5382;42.136;24.796;2023-05-22T00:15:37;99533.38;;;17.27;100.00
10668;BME280;5382;42.136;24.796;2023-05-22T00:18:04;99526.00;;;17.29;100.00
10668;BME280;5382;42.136;24.796;2023-05-22T00:20:32;99526.06;;;17.37;100.00
10668;BME280;5382;42.136;24.796;2023-05-22T00:23:04;99526.41;;;17.42;100.00
10668;BME280;5382;42.136;24.796;2023-05-22T00:25:35;99531.56;;;17.44;100.00
10668;BME280;5382;42.136;24.796;2023-05-22T00:28:02;99533.53;;;17.34;100.00
10668;BME280;5382;42.136;24.796;2023-05-22T00:30:29;99532.06;;;17.39;100.00
10668;BME280;5382;42.136;24.796;2023-05-22T00:32:56;99532.56;;;17.35;100.00
10668;BME280;5382;42.136;24.796;2023-05-22T00:35:22;99543.25;;;17.35;100.00
10668;BME280;5382;42.136;24.796;2023-05-22T00:37:49;99543.56;;;17.32;100.00
10668;BME280;5382;42.136;24.796;2023-05-22T00:40:17;99544.09;;;17.35;100.00
10668;BME280;5382;42.136;24.796;2023-05-22T00:42:44;99549.94;;;17.39;100.00
10668;BME280;5382;42.136;24.796;2023-05-22T00:45:12;99548.44;;;17.44;100.00
10668;BME280;5382;42.136;24.796;2023-05-22T00:47:39;99548.78;;;17.41;100.00
10668;BME280;5382;42.136;24.796;2023-05-22T00:50:07;99550.13;;;17.46;100.00
10668;BME280;5382;42.136;24.796;2023-05-22T00:52:38;99534.25;;;17.52;100.00
10668;BME280;5382;42.136;24.796;2023-05-22T00:55:07;99544.31;;;17.58;100.00
10668;BME280;5382;42.136;24.796;2023-05-22T00:57:37;99541.13;;;17.63;100.00
10668;BME280;5382;42.136;24.796;2023-05-22T01:00:07;99531.44;;;17.62;100.00
10668;BME280;5382;42.136;24.796;2023-05-22T01:02:36;99535.63;;;17.64;100.00
10668;BME280;5382;42.136;24.796;2023-05-22T01:05:04;99529.78;;;17.61;100.00
10668;BME280;5382;42.136;24.796;2023-05-22T01:07:32;99537.75;;;17.53;100.00
10668;BME280;5382;42.136;24.796;2023-05-22T01:10:02;99537.81;;;17.61;100.00
10668;BME280;5382;42.136;24.796;2023-05-22T01:12:33;99541.66;;;17.58;100.00
10668;BME280;5382;42.136;24.796;2023-05-22T01:15:11;99543.31;;;17.59;100.00
10668;BME280;5382;42.136;24.796;2023-05-22T01:17:46;99542.00;;;17.72;100.00
10668;BME280;5382;42.136;24.796;2023-05-22T01:20:22;99538.28;;;17.64;100.00
10668;BME280;5382;42.136;24.796;2023-05-22T01:23:09;99540.78;;;17.58;100.00
10668;BME280;5382;42.136;24.796;2023-05-22T01:31:44;99529.91;;;17.43;100.00
10668;BME280;5382;42.136;24.796;2023-05-22T01:34:12;99537.25;;;17.41;100.00
10668;BME280;5382;42.136;24.796;2023-05-22T01:36:40;99535.41;;;17.50;100.00
10668;BME280;5382;42.136;24.796;2023-05-22T01:39:11;99538.91;;;17.50;100.00
10668;BME280;5382;42.136;24.796;2023-05-22T01:41:39;99525.06;;;17.55;100.00
10668;BME280;5382;42.136;24.796;2023-05-22T01:44:06;99524.22;;;17.54;100.00
10668;BME280;5382;42.136;24.796;2023-05-22T01:46:33;99527.91;;;17.53;100.00
10668;BME280;5382;42.136;24.796;2023-05-22T01:49:01;99521.69;;;17.44;100.00
10668;BME280;5382;42.136;24.796;2023-05-22T01:51:38;99531.06;;;17.40;100.00
10668;BME280;5382;42.136;24.796;2023-05-22T01:54:15;99522.50;;;17.37;100.00
10668;BME280;5382;42.136;24.796;2023-05-22T01:56:47;99524.13;;;17.21;100.00
10668;BME280;5382;42.136;24.796;2023-05-22T01:59:22;99534.44;;;17.00;100.00
10668;BME280;5382;42.136;24.796;2023-05-22T02:01:53;99524.75;;;16.99;100.00
10668;BME280;5382;42.136;24.796;2023-05-22T02:04:22;99534.44;;;17.00;100.00
10668;BME280;5382;42.136;24.796;2023-05-22T02:06:51;99525.25;;;17.03;100.00
10668;BME280;5382;42.136;24.796;2023-05-22T02:09:20;99527.94;;;17.03;100.00
10668;BME280;5382;42.136;24.796;2023-05-22T02:11:50;99528.75;;;17.03;100.00
10668;BME280;5382;42.136;24.796;2023-05-22T02:14:17;99533.94;;;17.05;100.00
10668;BME280;5382;42.136;24.796;2023-05-22T02:16:44;99532.59;;;17.00;100.00
10668;BME280;5382;42.136;24.796;2023-05-22T02:19:12;99544.06;;;16.93;100.00
10668;BME280;5382;42.136;24.796;2023-05-22T02:21:41;99538.94;;;16.99;100.00
10668;BME280;5382;42.136;24.796;2023-05-22T02:24:08;99536.59;;;16.96;100.00
10668;BME280;5382;42.136;24.796;2023-05-22T02:26:35;99529.41;;;16.97;100.00
10668;BME280;5382;42.136;24.796;2023-05-22T02:29:02;99532.06;;;16.89;100.00
10668;BME280;5382;42.136;24.796;2023-05-22T02:31:29;99529.63;;;16.77;100.00
10668;BME280;5382;42.136;24.796;2023-05-22T02:33:56;99532.38;;;16.86;100.00
10668;BME280;5382;42.136;24.796;2023-05-22T02:36:22;99532.88;;;16.89;100.00
10668;BME280;5382;42.136;24.796;2023-05-22T02:38:52;99536.41;;;16.98;100.00
10668;BME280;5382;42.136;24.796;2023-05-22T02:41:19;99543.28;;;17.00;100.00
10668;BME280;5382;42.136;24.796;2023-05-22T02:43:46;99536.06;;;16.93;100.00
10668;BME280;5382;42.136;24.796;2023-05-22T02:46:13;99536.84;;;16.85;100.00
10668;BME280;5382;42.136;24.796;2023-05-22T02:48:40;99527.31;;;16.83;100.00
10668;BME280;5382;42.136;24.796;2023-05-22T02:51:06;99530.69;;;16.85;100.00
10668;BME280;5382;42.136;24.796;2023-05-22T02:53:33;99528.38;;;16.90;100.00
10668;BME280;5382;42.136;24.796;2023-05-22T02:56:06;99531.44;;;17.03;100.00
10668;BME280;5382;42.136;24.796;2023-05-22T02:58:33;99537.31;;;17.07;100.00
10668;BME280;5382;42.136;24.796;2023-05-22T03:01:00;99534.34;;;17.18;100.00
10668;BME280;5382;42.136;24.796;2023-05-22T03:03:29;99530.28;;;17.14;100.00
10668;BME280;5382;42.136;24.796;2023-05-22T03:05:56;99540.16;;;17.13;100.00
10668;BME280;5382;42.136;24.796;2023-05-22T03:08:23;99535.00;;;17.20;100.00
10668;BME280;5382;42.136;24.796;2023-05-22T03:10:52;99537.00;;;17.18;100.00
10668;BME280;5382;42.136;24.796;2023-05-22T03:13:20;99543.50;;;17.15;100.00
10668;BME280;5382;42.136;24.796;2023-05-22T03:15:47;99536.69;;;17.21;100.00
10668;BME280;5382;42.136;24.796;2023-05-22T03:18:14;99533.31;;;17.19;100.00
10668;BME280;5382;42.136;24.796;2023-05-22T03:20:41;99537.72;;;17.28;100.00
10668;BME280;5382;42.136;24.796;2023-05-22T03:23:09;99541.22;;;17.29;100.00
10668;BME280;5382;42.136;24.796;2023-05-22T03:25:36;99533.50;;;17.17;100.00
10668;BME280;5382;42.136;24.796;2023-05-22T03:28:04;99535.97;;;17.11;100.00
10668;BME280;5382;42.136;24.796;2023-05-22T03:30:32;99537.47;;;17.13;100.00
10668;BME280;5382;42.136;24.796;2023-05-22T03:32:59;99540.03;;;17.23;100.00
10668;BME280;5382;42.136;24.796;2023-05-22T03:35:26;99536.06;;;17.27;100.00
10668;BME280;5382;42.136;24.796;2023-05-22T03:37:53;99540.88;;;17.32;100.00
10668;BME280;5382;42.136;24.796;2023-05-22T03:40:20;99540.75;;;17.33;100.00
10668;BME280;5382;42.136;24.796;2023-05-22T03:42:46;99539.56;;;17.36;100.00
10668;BME280;5382;42.136;24.796;2023-05-22T03:45:14;99535.59;;;17.40;100.00
10668;BME280;5382;42.136;24.796;2023-05-22T03:47:42;99544.25;;;17.42;100.00
10668;BME280;5382;42.136;24.796;2023-05-22T03:50:09;99540.06;;;17.31;100.00
10668;BME280;5382;42.136;24.796;2023-05-22T03:52:37;99542.03;;;17.29;100.00
10668;BME280;5382;42.136;24.796;2023-05-22T03:55:05;99545.25;;;17.33;100.00
10668;BME280;5382;42.136;24.796;2023-05-22T03:57:32;99547.59;;;17.36;100.00
10668;BME280;5382;42.136;24.796;2023-05-22T03:59:59;99549.09;;;17.30;100.00
10668;BME280;5382;42.136;24.796;2023-05-22T04:02:34;99553.75;;;17.28;100.00
10668;BME280;5382;42.136;24.796;2023-05-22T04:05:07;99548.06;;;17.31;100.00
10668;BME280;5382;42.136;24.796;2023-05-22T04:07:34;99556.44;;;17.36;100.00
10668;BME280;5382;42.136;24.796;2023-05-22T04:10:02;99543.75;;;17.38;100.00
10668;BME280;5382;42.136;24.796;2023-05-22T04:12:29;99553.78;;;17.44;100.00
10668;BME280;5382;42.136;24.796;2023-05-22T04:14:56;99544.94;;;17.44;100.00
10668;BME280;5382;42.136;24.796;2023-05-22T04:17:23;99548.44;;;17.44;100.00
10668;BME280;5382;42.136;24.796;2023-05-22T04:19:49;99536.91;;;17.36;100.00
10668;BME280;5382;42.136;24.796;2023-05-22T04:22:17;99544.59;;;17.39;100.00
10668;BME280;5382;42.136;24.796;2023-05-22T04:24:45;99543.97;;;17.45;100.00
10668;BME280;5382;42.136;24.796;2023-05-22T04:27:13;99548.63;;;17.43;100.00
10668;BME280;5382;42.136;24.796;2023-05-22T04:29:40;99546.94;;;17.42;100.00
10668;BME280;5382;42.136;24.796;2023-05-22T04:32:09;99539.94;;;17.49;100.00
10668;BME280;5382;42.136;24.796;2023-05-22T04:34:36;99546.31;;;17.56;100.00
10668;BME280;5382;42.136;24.796;2023-05-22T04:37:03;99551.31;;;17.51;100.00
10668;BME280;5382;42.136;24.796;2023-05-22T04:39:31;99556.47;;;17.53;100.00
10668;BME280;5382;42.136;24.796;2023-05-22T04:41:59;99556.69;;;17.59;100.00
10668;BME280;5382;42.136;24.796;2023-05-22T04:44:30;99553.31;;;17.57;100.00
10668;BME280;5382;42.136;24.796;2023-05-22T04:46:59;99561.69;;;17.54;100.00
10668;BME280;5382;42.136;24.796;2023-05-22T04:49:26;99558.34;;;17.52;100.00
10668;BME280;5382;42.136;24.796;2023-05-22T04:51:54;99557.84;;;17.49;100.00
10668;BME280;5382;42.136;24.796;2023-05-22T04:54:21;99558.34;;;17.52;100.00
10668;BME280;5382;42.136;24.796;2023-05-22T04:56:50;99559.00;;;17.54;100.00
10668;BME280;5382;42.136;24.796;2023-05-22T04:59:17;99560.50;;;17.49;100.00
10668;BME280;5382;42.136;24.796;2023-05-22T05:01:47;99555.16;;;17.57;100.00
10668;BME280;5382;42.136;24.796;2023-05-22T05:04:15;99556.00;;;17.65;100.00
10668;BME280;5382;42.136;24.796;2023-05-22T05:06:42;99561.56;;;17.72;100.00
10668;BME280;5382;42.136;24.796;2023-05-22T05:09:09;99558.91;;;17.80;100.00
10668;BME280;5382;42.136;24.796;2023-05-22T05:11:36;99567.63;;;17.91;100.00
10668;BME280;5382;42.136;24.796;2023-05-22T05:14:04;99569.81;;;17.87;100.00
10668;BME280;5382;42.136;24.796;2023-05-22T05:16:31;99559.75;;;17.81;100.00
10668;BME280;5382;42.136;24.796;2023-05-22T05:18:58;99562.13;;;17.92;100.00
10668;BME280;5382;42.136;24.796;2023-05-22T05:21:25;99570.16;;;17.84;100.00
10668;BME280;5382;42.136;24.796;2023-05-22T05:23:52;99572.44;;;17.79;100.00
10668;BME280;5382;42.136;24.796;2023-05-22T05:26:19;99567.97;;;17.79;100.00
10668;BME280;5382;42.136;24.796;2023-05-22T05:28:48;99561.78;;;17.87;100.00
10668;BME280;5382;42.136;24.796;2023-05-22T05:31:17;99564.28;;;17.88;100.00
10668;BME280;5382;42.136;24.796;2023-05-22T05:33:44;99564.81;;;17.92;100.00
10668;BME280;5382;42.136;24.796;2023-05-22T05:36:11;99575.16;;;17.87;100.00
10668;BME280;5382;42.136;24.796;2023-05-22T05:38:38;99562.44;;;17.81;100.00
10668;BME280;5382;42.136;24.796;2023-05-22T05:41:05;99584.03;;;17.96;100.00
10668;BME280;5382;42.136;24.796;2023-05-22T05:43:31;99601.28;;;18.01;100.00
10668;BME280;5382;42.136;24.796;2023-05-22T05:45:58;99591.56;;;18.17;100.00
10668;BME280;5382;42.136;24.796;2023-05-22T05:48:26;99584.72;;;18.06;100.00
10668;BME280;5382;42.136;24.796;2023-05-22T05:50:53;99583.69;;;17.99;100.00
10668;BME280;5382;42.136;24.796;2023-05-22T05:53:20;99592.91;;;17.88;100.00
10668;BME280;5382;42.136;24.796;2023-05-22T05:55:47;99593.41;;;17.92;100.00
10668;BME280;5382;42.136;24.796;2023-05-22T05:58:14;99593.75;;;17.97;100.00
10668;BME280;5382;42.136;24.796;2023-05-22T06:00:40;99607.63;;;18.00;100.00
10668;BME280;5382;42.136;24.796;2023-05-22T06:03:07;99596.44;;;18.05;100.00
10668;BME280;5382;42.136;24.796;2023-05-22T06:05:36;99607.31;;;18.03;100.00
10668;BME280;5382;42.136;24.796;2023-05-22T06:08:03;99606.47;;;18.11;100.00
10668;BME280;5382;42.136;24.796;2023-05-22T06:10:30;99610.31;;;18.25;100.00
10668;BME280;5382;42.136;24.796;2023-05-22T06:12:57;99615.53;;;18.35;100.00
10668;BME280;5382;42.136;24.796;2023-05-22T06:15:24;99606.31;;;18.37;100.00
10668;BME280;5382;42.136;24.796;2023-05-22T06:17:50;99619.38;;;18.57;100.00
10668;BME280;5382;42.136;24.796;2023-05-22T06:20:17;99617.69;;;18.72;100.00
10668;BME280;5382;42.136;24.796;2023-05-22T06:22:45;99619.22;;;18.83;100.00
10668;BME280;5382;42.136;24.796;2023-05-22T06:25:12;99615.69;;;18.90;100.00
10668;BME280;5382;42.136;24.796;2023-05-22T06:27:39;99617.16;;;19.01;100.00
10668;BME280;5382;42.136;24.796;2023-05-22T06:30:07;99623.66;;;19.07;100.00
10668;BME280;5382;42.136;24.796;2023-05-22T06:32:34;99617.44;;;19.14;100.00
10668;BME280;5382;42.136;24.796;2023-05-22T06:35:01;99621.06;;;19.30;100.00
10668;BME280;5382;42.136;24.796;2023-05-22T06:37:28;99621.03;;;19.38;100.00
10668;BME280;5382;42.136;24.796;2023-05-22T06:39:57;99620.16;;;19.46;100.00
10668;BME280;5382;42.136;24.796;2023-05-22T06:42:23;99619.66;;;19.50;100.00
10668;BME280;5382;42.136;24.796;2023-05-22T06:44:51;99628.38;;;19.52;100.00
10668;BME280;5382;42.136;24.796;2023-05-22T06:47:18;99629.81;;;19.63;100.00
10668;BME280;5382;42.136;24.796;2023-05-22T06:49:44;99624.81;;;19.60;100.00
10668;BME280;5382;42.136;24.796;2023-05-22T06:52:11;99636.00;;;19.72;100.00
10668;BME280;5382;42.136;24.796;2023-05-22T06:54:38;99636.31;;;19.77;100.00
10668;BME280;5382;42.136;24.796;2023-05-22T06:57:08;99615.81;;;19.84;100.00
10668;BME280;5382;42.136;24.796;2023-05-22T06:59:35;99624.31;;;19.96;100.00
10668;BME280;5382;42.136;24.796;2023-05-22T07:02:02;99629.72;;;19.88;100.00
10668;BME280;5382;42.136;24.796;2023-05-22T07:04:29;99626.63;;;19.99;100.00
10668;BME280;5382;42.136;24.796;2023-05-22T07:06:55;99623.66;;;19.94;100.00
10668;BME280;5382;42.136;24.796;2023-05-22T07:09:22;99629.03;;;19.94;100.00
10668;BME280;5382;42.136;24.796;2023-05-22T07:11:49;99630.81;;;20.01;100.00
10668;BME280;5382;42.136;24.796;2023-05-22T07:14:17;99633.59;;;20.08;100.00
10668;BME280;5382;42.136;24.796;2023-05-22T07:16:44;99629.88;;;20.17;100.00
10668;BME280;5382;42.136;24.796;2023-05-22T07:19:11;99629.78;;;20.02;100.00
10668;BME280;5382;42.136;24.796;2023-05-22T07:21:37;99634.28;;;20.10;100.00
10668;BME280;5382;42.136;24.796;2023-05-22T07:24:05;99625.81;;;20.21;100.00
10668;BME280;5382;42.136;24.796;2023-05-22T07:26:33;99633.69;;;20.23;100.00
10668;BME280;5382;42.136;24.796;2023-05-22T07:29:01;99629.13;;;20.23;100.00
10668;BME280;5382;42.136;24.796;2023-05-22T07:31:29;99628.59;;;20.28;100.00
10668;BME280;5382;42.136;24.796;2023-05-22T07:33:58;99629.25;;;20.30;100.00
10668;BME280;5382;42.136;24.796;2023-05-22T07:36:25;99635.22;;;20.40;100.00
10668;BME280;5382;42.136;24.796;2023-05-22T07:38:52;99630.44;;;20.51;100.00
10668;BME280;5382;42.136;24.796;2023-05-22T07:41:18;99640.66;;;20.78;100.00
10668;BME280;5382;42.136;24.796;2023-05-22T07:43:46;99632.00;;;20.83;100.00
10668;BME280;5382;42.136;24.796;2023-05-22T07:46:13;99634.00;;;20.89;100.00
10668;BME280;5382;42.136;24.796;2023-05-22T07:48:41;99635.38;;;21.00;100.00
10668;BME280;5382;42.136;24.796;2023-05-22T07:51:08;99633.53;;;21.00;100.00
10668;BME280;5382;42.136;24.796;2023-05-22T07:53:35;99635.56;;;20.98;100.00
10668;BME280;5382;42.136;24.796;2023-05-22T07:56:01;99634.75;;;21.12;100.00
10668;BME280;5382;42.136;24.796;2023-05-22T07:58:28;99634.41;;;21.45;100.00
10668;BME280;5382;42.136;24.796;2023-05-22T08:00:55;99622.47;;;21.69;100.00
10668;BME280;5382;42.136;24.796;2023-05-22T08:03:22;99626.94;;;21.98;100.00
10668;BME280;5382;42.136;24.796;2023-05-22T08:05:50;99625.03;;;22.14;100.00
10668;BME280;5382;42.136;24.796;2023-05-22T08:08:17;99626.31;;;22.39;100.00
10668;BME280;5382;42.136;24.796;2023-05-22T08:10:43;99627.03;;;22.48;100.00
10668;BME280;5382;42.136;24.796;2023-05-22T08:13:10;99624.53;;;22.25;100.00
10668;BME280;5382;42.136;24.796;2023-05-22T08:15:37;99638.41;;;22.43;100.00
10668;BME280;5382;42.136;24.796;2023-05-22T08:18:04;99631.53;;;22.41;100.00
10668;BME280;5382;42.136;24.796;2023-05-22T08:20:30;99626.03;;;22.77;100.00
10668;BME280;5382;42.136;24.796;2023-05-22T08:22:59;99625.81;;;22.79;100.00
10668;BME280;5382;42.136;24.796;2023-05-22T08:25:26;99620.19;;;23.02;100.00
10668;BME280;5382;42.136;24.796;2023-05-22T08:27:52;99626.94;;;23.19;100.00
10668;BME280;5382;42.136;24.796;2023-05-22T08:30:19;99618.63;;;23.14;100.00
10668;BME280;5382;42.136;24.796;2023-05-22T08:32:46;99614.03;;;23.08;100.00
10668;BME280;5382;42.136;24.796;2023-05-22T08:35:13;99618.25;;;23.24;100.00
10668;BME280;5382;42.136;24.796;2023-05-22T08:37:40;99616.84;;;23.00;100.00
10668;BME280;5382;42.136;24.796;2023-05-22T08:40:10;99616.06;;;23.06;100.00
10668;BME280;5382;42.136;24.796;2023-05-22T08:42:37;99622.44;;;22.70;100.00
10668;BME280;5382;42.136;24.796;2023-05-22T08:45:05;99617.47;;;22.74;100.00
10668;BME280;5382;42.136;24.796;2023-05-22T08:47:33;99615.56;;;22.68;100.00
10668;BME280;5382;42.136;24.796;2023-05-22T08:50:01;99628.94;;;22.54;100.00
10668;BME280;5382;42.136;24.796;2023-05-22T08:52:32;99617.69;;;22.72;100.00
10668;BME280;5382;42.136;24.796;2023-05-22T08:55:02;99610.94;;;22.90;100.00
10668;BME280;5382;42.136;24.796;2023-05-22T08:57:31;99608.94;;;22.70;100.00
10668;BME280;5382;42.136;24.796;2023-05-22T08:59:58;99618.13;;;22.76;100.00
10668;BME280;5382;42.136;24.796;2023-05-22T09:02:25;99603.81;;;22.75;100.00
10668;BME280;5382;42.136;24.796;2023-05-22T09:04:52;99610.03;;;22.76;100.00
10668;BME280;5382;42.136;24.796;2023-05-22T09:07:19;99609.69;;;22.85;100.00
10668;BME280;5382;42.136;24.796;2023-05-22T09:09:46;99605.13;;;23.14;100.00
10668;BME280;5382;42.136;24.796;2023-05-22T09:12:13;99604.78;;;22.96;100.00
10668;BME280;5382;42.136;24.796;2023-05-22T09:14:43;99616.06;;;23.06;100.00
10668;BME280;5382;42.136;24.796;2023-05-22T09:17:13;99609.16;;;23.32;100.00
10668;BME280;5382;42.136;24.796;2023-05-22T09:19:42;99605.00;;;23.36;100.00
10668;BME280;5382;42.136;24.796;2023-05-22T09:22:09;99603.75;;;23.73;100.00
10668;BME280;5382;42.136;24.796;2023-05-22T09:24:37;99596.13;;;23.97;100.00
10668;BME280;5382;42.136;24.796;2023-05-22T09:27:06;99598.41;;;24.00;100.00
10668;BME280;5382;42.136;24.796;2023-05-22T09:29:47;99595.53;;;24.28;100.00
10668;BME280;5382;42.136;24.796;2023-05-22T09:32:16;99592.00;;;24.47;100.00
10668;BME280;5382;42.136;24.796;2023-05-22T09:34:43;99600.94;;;24.68;100.00
10668;BME280;5382;42.136;24.796;2023-05-22T09:37:11;99591.81;;;24.49;100.00
10668;BME280;5382;42.136;24.796;2023-05-22T09:39:38;99598.47;;;24.40;100.00
10668;BME280;5382;42.136;24.796;2023-05-22T09:42:07;99587.63;;;24.20;100.00
10668;BME280;5382;42.136;24.796;2023-05-22T09:44:34;99581.19;;;24.14;100.00
10668;BME280;5382;42.136;24.796;2023-05-22T09:47:03;99591.13;;;23.93;100.00
10668;BME280;5382;42.136;24.796;2023-05-22T09:49:34;99591.56;;;24.10;100.00
10668;BME280;5382;42.136;24.796;2023-05-22T09:52:03;99589.06;;;24.15;100.00
10668;BME280;5382;42.136;24.796;2023-05-22T09:54:33;99586.13;;;23.97;100.00
10668;BME280;5382;42.136;24.796;2023-05-22T09:57:00;99588.66;;;24.12;100.00
10668;BME280;5382;42.136;24.796;2023-05-22T09:59:30;99585.50;;;24.08;100.00
10668;BME280;5382;42.136;24.796;2023-05-22T10:01:58;99578.44;;;24.01;100.00
10668;BME280;5382;42.136;24.796;2023-05-22T10:04:31;99571.59;;;24.05;100.00
10668;BME280;5382;42.136;24.796;2023-05-22T10:07:00;99568.47;;;24.14;100.00
10668;BME280;5382;42.136;24.796;2023-05-22T10:09:30;99572.84;;;24.09;100.00
10668;BME280;5382;42.136;24.796;2023-05-22T10:12:02;99562.44;;;24.06;100.00
10668;BME280;5382;42.136;24.796;2023-05-22T10:14:33;99576.56;;;23.94;100.00
10668;BME280;5382;42.136;24.796;2023-05-22T10:17:00;99568.66;;;23.86;100.00
10668;BME280;5382;42.136;24.796;2023-05-22T10:19:31;99567.22;;;24.04;100.00
10668;BME280;5382;42.136;24.796;2023-05-22T10:21:59;99561.81;;;24.44;96.88
10668;BME280;5382;42.136;24.796;2023-05-22T10:24:26;99558.72;;;24.20;96.76
10668;BME280;5382;42.136;24.796;2023-05-22T10:26:54;99564.13;;;24.33;96.91
10668;BME280;5382;42.136;24.796;2023-05-22T10:29:24;99568.25;;;24.83;95.12
10668;BME280;5382;42.136;24.796;2023-05-22T10:31:58;99560.97;;;24.90;88.30
10668;BME280;5382;42.136;24.796;2023-05-22T10:34:29;99564.44;;;25.17;83.26
10668;BME280;5382;42.136;24.796;2023-05-22T10:37:11;99556.25;;;25.37;92.52
10668;BME280;5382;42.136;24.796;2023-05-22T10:39:49;99548.03;;;25.95;82.99
10668;BME280;5382;42.136;24.796;2023-05-22T10:42:19;99552.25;;;26.16;85.97
10668;BME280;5382;42.136;24.796;2023-05-22T10:44:47;99550.25;;;26.30;71.55
10668;BME280;5382;42.136;24.796;2023-05-22T10:47:14;99541.66;;;26.83;85.04
10668;BME280;5382;42.136;24.796;2023-05-22T10:49:43;99543.19;;;27.34;78.23
10668;BME280;5382;42.136;24.796;2023-05-22T10:52:11;99534.16;;;27.52;72.15
10668;BME280;5382;42.136;24.796;2023-05-22T10:54:41;99532.22;;;27.41;69.21
10668;BME280;5382;42.136;24.796;2023-05-22T10:57:14;99528.94;;;27.51;64.38
10668;BME280;5382;42.136;24.796;2023-05-22T10:59:41;99530.69;;;27.45;60.86
10668;BME280;5382;42.136;24.796;2023-05-22T11:02:18;99509.00;;;27.87;63.57
10668;BME280;5382;42.136;24.796;2023-05-22T11:04:45;99502.41;;;28.18;65.83
10668;BME280;5382;42.136;24.796;2023-05-22T11:07:14;99504.94;;;27.78;63.48
10668;BME280;5382;42.136;24.796;2023-05-22T11:09:41;99498.59;;;27.24;61.50
10668;BME280;5382;42.136;24.796;2023-05-22T11:12:17;99503.56;;;26.90;65.06
10668;BME280;5382;42.136;24.796;2023-05-22T11:14:49;99499.06;;;27.51;66.44
10668;BME280;5382;42.136;24.796;2023-05-22T11:17:17;99500.47;;;27.53;64.60
10668;BME280;5382;42.136;24.796;2023-05-22T11:19:56;99511.00;;;27.50;65.10
10668;BME280;5382;42.136;24.796;2023-05-22T11:22:30;99509.84;;;27.39;65.88
10668;BME280;5382;42.136;24.796;2023-05-22T11:24:58;99504.53;;;27.14;64.03
10668;BME280;5382;42.136;24.796;2023-05-22T11:27:25;99499.84;;;27.03;63.84
10668;BME280;5382;42.136;24.796;2023-05-22T11:29:53;99501.22;;;27.30;60.28
10668;BME280;5382;42.136;24.796;2023-05-22T11:32:22;99507.47;;;26.94;66.11
10668;BME280;5382;42.136;24.796;2023-05-22T11:34:49;99524.75;;;26.63;68.45
10668;BME280;5382;42.136;24.796;2023-05-22T11:37:16;99542.25;;;26.67;71.27
10668;BME280;5382;42.136;24.796;2023-05-22T11:39:49;99559.34;;;26.17;69.46
10668;BME280;5382;42.136;24.796;2023-05-22T11:42:17;99549.75;;;24.73;100.00
10668;BME280;5382;42.136;24.796;2023-05-22T11:44:44;99549.59;;;23.40;100.00
10668;BME280;5382;42.136;24.796;2023-05-22T11:47:11;99563.25;;;22.34;100.00
10668;BME280;5382;42.136;24.796;2023-05-22T11:49:39;99562.63;;;21.38;100.00
10668;BME280;5382;42.136;24.796;2023-05-22T11:52:06;99546.00;;;20.45;100.00
10668;BME280;5382;42.136;24.796;2023-05-22T11:54:33;99561.59;;;19.89;100.00
10668;BME280;5382;42.136;24.796;2023-05-22T11:57:04;99565.63;;;19.85;100.00
10668;BME280;5382;42.136;24.796;2023-05-22T11:59:31;99554.28;;;19.97;100.00
10668;BME280;5382;42.136;24.796;2023-05-22T12:01:58;99543.91;;;20.17;100.00
10668;BME280;5382;42.136;24.796;2023-05-22T12:04:25;99552.28;;;20.37;100.00
10668;BME280;5382;42.136;24.796;2023-05-22T12:06:52;99552.38;;;20.44;100.00
10668;BME280;5382;42.136;24.796;2023-05-22T12:09:19;99549.91;;;20.42;100.00
10668;BME280;5382;42.136;24.796;2023-05-22T12:11:46;99545.91;;;20.53;100.00
10668;BME280;5382;42.136;24.796;2023-05-22T12:14:15;99541.59;;;20.67;100.00
10668;BME280;5382;42.136;24.796;2023-05-22T12:16:42;99537.16;;;20.74;100.00
10668;BME280;5382;42.136;24.796;2023-05-22T12:19:10;99533.53;;;20.97;100.00
10668;BME280;5382;42.136;24.796;2023-05-22T12:21:37;99541.69;;;21.03;100.00
10668;BME280;5382;42.136;24.796;2023-05-22T12:24:06;99534.81;;;21.16;100.00
10668;BME280;5382;42.136;24.796;2023-05-22T12:26:33;99519.38;;;21.24;100.00
10668;BME280;5382;42.136;24.796;2023-05-22T12:29:01;99520.69;;;21.43;100.00
10668;BME280;5382;42.136;24.796;2023-05-22T12:31:34;99535.00;;;22.08;100.00
10668;BME280;5382;42.136;24.796;2023-05-22T12:34:04;99529.38;;;22.88;100.00
10668;BME280;5382;42.136;24.796;2023-05-22T12:36:33;99523.34;;;23.95;100.00
10668;BME280;5382;42.136;24.796;2023-05-22T12:39:00;99520.16;;;24.91;96.78
10668;BME280;5382;42.136;24.796;2023-05-22T12:41:27;99514.72;;;25.50;94.87
10668;BME280;5382;42.136;24.796;2023-05-22T12:43:54;99518.94;;;25.77;93.59
10668;BME280;5382;42.136;24.796;2023-05-22T12:46:21;99522.31;;;26.29;94.43
10668;BME280;5382;42.136;24.796;2023-05-22T12:48:49;99525.56;;;26.82;92.19
10668;BME280;5382;42.136;24.796;2023-05-22T12:51:16;99513.75;;;27.31;89.85
10668;BME280;5382;42.136;24.796;2023-05-22T12:53:42;99517.59;;;27.42;77.48
10668;BME280;5382;42.136;24.796;2023-05-22T12:56:09;99514.41;;;26.90;90.41
10668;BME280;5382;42.136;24.796;2023-05-22T12:58:36;99514.78;;;27.30;91.59
10668;BME280;5382;42.136;24.796;2023-05-22T13:01:03;99519.16;;;27.50;94.06